sensor_id;sensor_type;location;lat;lon;timestamp;temperature;humidity
39095;DHT22;24840;47.508;19.376;2023-03-23T00:01:31;3.80;99.90
39095;DHT22;24840;47.508;19.376;2023-03-23T00:04:03;3.80;99.90
39095;DHT22;24840;47.508;19.376;2023-03-23T00:06:29;3.70;99.90
39095;DHT22;24840;47.508;19.376;2023-03-23T00:08:58;3.70;99.90
39095;DHT22;24840;47.508;19.376;2023-03-23T00:11:30;3.70;99.90
39095;DHT22;24840;47.508;19.376;2023-03-23T00:13:58;3.50;99.90
39095;DHT22;24840;47.508;19.376;2023-03-23T00:16:28;3.50;99.90
39095;DHT22;24840;47.508;19.376;2023-03-23T00:18:57;3.60;99.90
39095;DHT22;24840;47.508;19.376;2023-03-23T00:21:24;3.40;99.90
39095;DHT22;24840;47.508;19.376;2023-03-23T00:26:27;3.50;99.90
39095;DHT22;24840;47.508;19.376;2023-03-23T00:28:55;3.50;99.90
39095;DHT22;24840;47.508;19.376;2023-03-23T00:31:21;3.30;99.90
39095;DHT22;24840;47.508;19.376;2023-03-23T00:33:46;3.20;99.90
39095;DHT22;24840;47.508;19.376;2023-03-23T00:36:13;3.20;99.90
39095;DHT22;24840;47.508;19.376;2023-03-23T00:38:40;3.30;99.90
39095;DHT22;24840;47.508;19.376;2023-03-23T00:41:08;3.30;99.90
39095;DHT22;24840;47.508;19.376;2023-03-23T00:43:36;3.30;99.90
39095;DHT22;24840;47.508;19.376;2023-03-23T00:46:03;3.30;99.90
39095;DHT22;24840;47.508;19.376;2023-03-23T00:48:34;3.20;99.90
39095;DHT22;24840;47.508;19.376;2023-03-23T00:51:02;3.10;99.90
39095;DHT22;24840;47.508;19.376;2023-03-23T00:53:32;3.10;99.90
39095;DHT22;24840;47.508;19.376;2023-03-23T00:55:58;3.10;99.90
39095;DHT22;24840;47.508;19.376;2023-03-23T00:58:24;3.10;99.90
39095;DHT22;24840;47.508;19.376;2023-03-23T01:00:50;3.10;99.90
39095;DHT22;24840;47.508;19.376;2023-03-23T01:03:17;3.10;99.90
39095;DHT22;24840;47.508;19.376;2023-03-23T01:05:44;3.10;99.90
39095;DHT22;24840;47.508;19.376;2023-03-23T01:08:12;3.00;99.90
39095;DHT22;24840;47.508;19.376;2023-03-23T01:10:39;2.90;99.90
39095;DHT22;24840;47.508;19.376;2023-03-23T01:13:06;2.90;99.90
39095;DHT22;24840;47.508;19.376;2023-03-23T01:15:32;2.80;99.90
39095;DHT22;24840;47.508;19.376;2023-03-23T01:17:58;2.80;99.90
39095;DHT22;24840;47.508;19.376;2023-03-23T01:20:25;2.90;99.90
39095;DHT22;24840;47.508;19.376;2023-03-23T01:22:52;2.90;99.90
39095;DHT22;24840;47.508;19.376;2023-03-23T01:25:18;2.80;99.90
39095;DHT22;24840;47.508;19.376;2023-03-23T01:27:44;2.80;99.90
39095;DHT22;24840;47.508;19.376;2023-03-23T01:30:11;2.50;99.90
39095;DHT22;24840;47.508;19.376;2023-03-23T01:32:38;2.70;99.90
39095;DHT22;24840;47.508;19.376;2023-03-23T01:35:04;2.80;99.90
39095;DHT22;24840;47.508;19.376;2023-03-23T01:37:30;2.80;99.90
39095;DHT22;24840;47.508;19.376;2023-03-23T01:39:57;2.80;99.90
39095;DHT22;24840;47.508;19.376;2023-03-23T01:42:25;2.80;99.90
39095;DHT22;24840;47.508;19.376;2023-03-23T01:47:20;2.40;99.90
39095;DHT22;24840;47.508;19.376;2023-03-23T01:49:49;2.50;99.90
39095;DHT22;24840;47.508;19.376;2023-03-23T01:52:23;2.40;99.90
39095;DHT22;24840;47.508;19.376;2023-03-23T01:54:52;2.50;99.90
39095;DHT22;24840;47.508;19.376;2023-03-23T01:57:22;2.60;99.90
39095;DHT22;24840;47.508;19.376;2023-03-23T01:59:51;2.40;99.90
39095;DHT22;24840;47.508;19.376;2023-03-23T02:02:20;2.50;99.90
39095;DHT22;24840;47.508;19.376;2023-03-23T02:04:47;2.60;99.90
39095;DHT22;24840;47.508;19.376;2023-03-23T02:07:15;2.50;99.90
39095;DHT22;24840;47.508;19.376;2023-03-23T02:09:42;2.60;99.90
39095;DHT22;24840;47.508;19.376;2023-03-23T02:12:08;2.50;99.90
39095;DHT22;24840;47.508;19.376;2023-03-23T02:14:34;2.60;99.90
39095;DHT22;24840;47.508;19.376;2023-03-23T02:25:53;2.00;99.90
39095;DHT22;24840;47.508;19.376;2023-03-23T02:28:36;2.30;99.90
39095;DHT22;24840;47.508;19.376;2023-03-23T02:34:00;2.40;99.90
39095;DHT22;24840;47.508;19.376;2023-03-23T02:41:51;2.30;99.90
39095;DHT22;24840;47.508;19.376;2023-03-23T02:44:19;2.30;99.90
39095;DHT22;24840;47.508;19.376;2023-03-23T02:46:45;2.30;99.90
39095;DHT22;24840;47.508;19.376;2023-03-23T02:49:14;2.40;99.90
39095;DHT22;24840;47.508;19.376;2023-03-23T02:51:43;2.10;99.90
39095;DHT22;24840;47.508;19.376;2023-03-23T02:54:11;2.20;99.90
39095;DHT22;24840;47.508;19.376;2023-03-23T02:56:39;2.20;99.90
39095;DHT22;24840;47.508;19.376;2023-03-23T02:59:06;2.30;99.90
39095;DHT22;24840;47.508;19.376;2023-03-23T03:04:15;2.20;99.90
39095;DHT22;24840;47.508;19.376;2023-03-23T03:09:18;2.00;99.90
39095;DHT22;24840;47.508;19.376;2023-03-23T03:11:50;2.00;99.90
39095;DHT22;24840;47.508;19.376;2023-03-23T03:14:27;2.00;99.90
39095;DHT22;24840;47.508;19.376;2023-03-23T03:19:39;1.80;99.90
39095;DHT22;24840;47.508;19.376;2023-03-23T03:22:06;2.00;99.90
39095;DHT22;24840;47.508;19.376;2023-03-23T03:24:35;2.20;99.90
39095;DHT22;24840;47.508;19.376;2023-03-23T03:27:11;2.20;99.90
39095;DHT22;24840;47.508;19.376;2023-03-23T03:29:41;2.10;99.90
39095;DHT22;24840;47.508;19.376;2023-03-23T03:32:11;2.10;99.90
39095;DHT22;24840;47.508;19.376;2023-03-23T03:34:38;2.10;99.90
39095;DHT22;24840;47.508;19.376;2023-03-23T03:37:05;2.20;99.90
39095;DHT22;24840;47.508;19.376;2023-03-23T03:39:35;2.00;99.90
39095;DHT22;24840;47.508;19.376;2023-03-23T03:42:01;2.10;99.90
39095;DHT22;24840;47.508;19.376;2023-03-23T03:44:27;2.10;99.90
39095;DHT22;24840;47.508;19.376;2023-03-23T03:46:52;2.10;99.90
39095;DHT22;24840;47.508;19.376;2023-03-23T03:49:18;2.00;99.90
39095;DHT22;24840;47.508;19.376;2023-03-23T03:51:44;1.90;99.90
39095;DHT22;24840;47.508;19.376;2023-03-23T03:54:11;1.80;99.90
39095;DHT22;24840;47.508;19.376;2023-03-23T03:56:38;1.90;99.90
39095;DHT22;24840;47.508;19.376;2023-03-23T03:59:08;1.90;99.90
39095;DHT22;24840;47.508;19.376;2023-03-23T04:01:36;2.00;99.90
39095;DHT22;24840;47.508;19.376;2023-03-23T04:04:03;2.00;99.90
39095;DHT22;24840;47.508;19.376;2023-03-23T04:06:30;2.00;99.90
39095;DHT22;24840;47.508;19.376;2023-03-23T04:08:57;1.90;99.90
39095;DHT22;24840;47.508;19.376;2023-03-23T04:11:25;1.90;99.90
39095;DHT22;24840;47.508;19.376;2023-03-23T04:13:51;2.00;99.90
39095;DHT22;24840;47.508;19.376;2023-03-23T04:16:17;1.90;99.90
39095;DHT22;24840;47.508;19.376;2023-03-23T04:18:44;1.80;99.90
39095;DHT22;24840;47.508;19.376;2023-03-23T04:21:10;1.50;99.90
39095;DHT22;24840;47.508;19.376;2023-03-23T04:23:36;1.60;99.90
39095;DHT22;24840;47.508;19.376;2023-03-23T04:26:03;1.80;99.90
39095;DHT22;24840;47.508;19.376;2023-03-23T04:28:29;1.80;99.90
39095;DHT22;24840;47.508;19.376;2023-03-23T04:30:59;1.80;99.90
39095;DHT22;24840;47.508;19.376;2023-03-23T04:33:27;1.80;99.90
39095;DHT22;24840;47.508;19.376;2023-03-23T04:35:54;1.90;99.90
39095;DHT22;24840;47.508;19.376;2023-03-23T04:38:23;1.90;99.90
39095;DHT22;24840;47.508;19.376;2023-03-23T04:40:51;1.90;99.90
39095;DHT22;24840;47.508;19.376;2023-03-23T04:43:18;1.80;99.90
39095;DHT22;24840;47.508;19.376;2023-03-23T04:45:47;1.90;99.90
39095;DHT22;24840;47.508;19.376;2023-03-23T04:48:17;1.80;99.90
39095;DHT22;24840;47.508;19.376;2023-03-23T04:50:44;1.80;99.90
39095;DHT22;24840;47.508;19.376;2023-03-23T04:53:09;1.80;99.90
39095;DHT22;24840;47.508;19.376;2023-03-23T04:55:36;1.80;99.90
39095;DHT22;24840;47.508;19.376;2023-03-23T04:58:06;1.90;99.90
39095;DHT22;24840;47.508;19.376;2023-03-23T05:00:34;1.70;99.90
39095;DHT22;24840;47.508;19.376;2023-03-23T05:03:00;1.70;99.90
39095;DHT22;24840;47.508;19.376;2023-03-23T05:05:27;1.80;99.90
39095;DHT22;24840;47.508;19.376;2023-03-23T05:07:57;1.90;99.90
39095;DHT22;24840;47.508;19.376;2023-03-23T05:10:24;1.80;99.90
39095;DHT22;24840;47.508;19.376;2023-03-23T05:12:50;1.70;99.90
39095;DHT22;24840;47.508;19.376;2023-03-23T05:15:16;1.90;99.90
39095;DHT22;24840;47.508;19.376;2023-03-23T05:17:42;1.70;99.90
39095;DHT22;24840;47.508;19.376;2023-03-23T05:20:13;1.70;99.90
39095;DHT22;24840;47.508;19.376;2023-03-23T05:22:41;1.70;99.90
39095;DHT22;24840;47.508;19.376;2023-03-23T05:25:08;1.80;99.90
39095;DHT22;24840;47.508;19.376;2023-03-23T05:27:37;2.00;99.90
39095;DHT22;24840;47.508;19.376;2023-03-23T05:30:05;2.10;99.90
39095;DHT22;24840;47.508;19.376;2023-03-23T05:32:32;2.30;99.90
39095;DHT22;24840;47.508;19.376;2023-03-23T05:34:58;2.30;99.90
39095;DHT22;24840;47.508;19.376;2023-03-23T05:37:26;2.30;99.90
39095;DHT22;24840;47.508;19.376;2023-03-23T05:39:54;2.10;99.90
39095;DHT22;24840;47.508;19.376;2023-03-23T05:42:23;2.40;99.90
39095;DHT22;24840;47.508;19.376;2023-03-23T05:44:49;2.40;99.90
39095;DHT22;24840;47.508;19.376;2023-03-23T05:47:15;2.50;99.90
39095;DHT22;24840;47.508;19.376;2023-03-23T05:49:41;2.70;99.90
39095;DHT22;24840;47.508;19.376;2023-03-23T05:52:07;2.70;99.90
39095;DHT22;24840;47.508;19.376;2023-03-23T05:54:33;2.80;99.90
39095;DHT22;24840;47.508;19.376;2023-03-23T05:57:02;3.00;99.90
39095;DHT22;24840;47.508;19.376;2023-03-23T05:59:28;3.00;99.90
39095;DHT22;24840;47.508;19.376;2023-03-23T06:01:54;3.20;99.90
39095;DHT22;24840;47.508;19.376;2023-03-23T06:04:20;3.20;99.90
39095;DHT22;24840;47.508;19.376;2023-03-23T06:06:50;3.20;99.90
39095;DHT22;24840;47.508;19.376;2023-03-23T06:09:17;3.30;99.90
39095;DHT22;24840;47.508;19.376;2023-03-23T06:11:43;3.50;99.90
39095;DHT22;24840;47.508;19.376;2023-03-23T06:14:09;3.70;99.90
39095;DHT22;24840;47.508;19.376;2023-03-23T06:16:35;3.90;99.90
39095;DHT22;24840;47.508;19.376;2023-03-23T06:19:02;4.20;99.90
39095;DHT22;24840;47.508;19.376;2023-03-23T06:21:30;4.50;99.90
39095;DHT22;24840;47.508;19.376;2023-03-23T06:23:56;4.80;99.90
39095;DHT22;24840;47.508;19.376;2023-03-23T06:26:25;5.20;99.90
39095;DHT22;24840;47.508;19.376;2023-03-23T06:28:51;5.60;99.90
39095;DHT22;24840;47.508;19.376;2023-03-23T06:31:17;6.20;99.90
39095;DHT22;24840;47.508;19.376;2023-03-23T06:33:46;6.80;99.90
39095;DHT22;24840;47.508;19.376;2023-03-23T06:36:12;7.10;99.90
39095;DHT22;24840;47.508;19.376;2023-03-23T06:38:38;7.70;99.90
39095;DHT22;24840;47.508;19.376;2023-03-23T06:41:04;8.20;99.90
39095;DHT22;24840;47.508;19.376;2023-03-23T06:43:30;9.20;99.90
39095;DHT22;24840;47.508;19.376;2023-03-23T06:46:00;9.70;99.90
39095;DHT22;24840;47.508;19.376;2023-03-23T06:48:27;10.30;99.90
39095;DHT22;24840;47.508;19.376;2023-03-23T06:50:53;10.70;99.90
39095;DHT22;24840;47.508;19.376;2023-03-23T06:53:18;10.90;99.90
39095;DHT22;24840;47.508;19.376;2023-03-23T06:55:46;11.20;99.90
39095;DHT22;24840;47.508;19.376;2023-03-23T06:58:12;11.60;99.90
39095;DHT22;24840;47.508;19.376;2023-03-23T07:00:38;11.80;99.90
39095;DHT22;24840;47.508;19.376;2023-03-23T07:03:06;12.10;99.90
39095;DHT22;24840;47.508;19.376;2023-03-23T07:05:33;12.30;99.00
39095;DHT22;24840;47.508;19.376;2023-03-23T07:07:59;12.60;99.90
39095;DHT22;24840;47.508;19.376;2023-03-23T07:10:25;12.90;98.70
39095;DHT22;24840;47.508;19.376;2023-03-23T07:12:51;13.10;97.10
39095;DHT22;24840;47.508;19.376;2023-03-23T07:15:17;13.10;96.90
39095;DHT22;24840;47.508;19.376;2023-03-23T07:17:43;13.20;97.50
39095;DHT22;24840;47.508;19.376;2023-03-23T07:20:09;13.50;95.90
39095;DHT22;24840;47.508;19.376;2023-03-23T07:22:35;13.60;95.30
39095;DHT22;24840;47.508;19.376;2023-03-23T07:25:10;13.70;94.70
39095;DHT22;24840;47.508;19.376;2023-03-23T07:27:35;13.60;93.60
39095;DHT22;24840;47.508;19.376;2023-03-23T07:30:16;13.80;93.60
39095;DHT22;24840;47.508;19.376;2023-03-23T07:32:42;13.80;93.10
39095;DHT22;24840;47.508;19.376;2023-03-23T07:35:08;13.70;93.40
39095;DHT22;24840;47.508;19.376;2023-03-23T07:37:35;13.90;93.80
39095;DHT22;24840;47.508;19.376;2023-03-23T07:40:04;13.90;93.10
39095;DHT22;24840;47.508;19.376;2023-03-23T07:42:55;13.90;92.30
39095;DHT22;24840;47.508;19.376;2023-03-23T07:45:22;14.20;91.80
39095;DHT22;24840;47.508;19.376;2023-03-23T07:47:48;14.50;91.70
39095;DHT22;24840;47.508;19.376;2023-03-23T07:50:13;14.30;91.10
39095;DHT22;24840;47.508;19.376;2023-03-23T07:52:40;14.50;92.40
39095;DHT22;24840;47.508;19.376;2023-03-23T07:55:09;14.80;91.20
39095;DHT22;24840;47.508;19.376;2023-03-23T07:57:37;15.00;91.30
39095;DHT22;24840;47.508;19.376;2023-03-23T08:00:04;15.20;90.00
39095;DHT22;24840;47.508;19.376;2023-03-23T08:02:39;15.40;90.10
39095;DHT22;24840;47.508;19.376;2023-03-23T08:05:05;15.60;88.00
39095;DHT22;24840;47.508;19.376;2023-03-23T08:07:30;15.60;88.00
39095;DHT22;24840;47.508;19.376;2023-03-23T08:09:56;15.90;88.90
39095;DHT22;24840;47.508;19.376;2023-03-23T08:12:22;16.20;86.50
39095;DHT22;24840;47.508;19.376;2023-03-23T08:14:47;16.60;84.40
39095;DHT22;24840;47.508;19.376;2023-03-23T08:17:13;16.70;83.80
39095;DHT22;24840;47.508;19.376;2023-03-23T08:19:40;16.50;82.70
39095;DHT22;24840;47.508;19.376;2023-03-23T08:22:06;16.60;84.70
39095;DHT22;24840;47.508;19.376;2023-03-23T08:24:32;17.00;82.20
39095;DHT22;24840;47.508;19.376;2023-03-23T08:26:59;17.20;82.80
39095;DHT22;24840;47.508;19.376;2023-03-23T08:29:25;17.60;79.10
39095;DHT22;24840;47.508;19.376;2023-03-23T08:31:51;18.20;82.80
39095;DHT22;24840;47.508;19.376;2023-03-23T08:34:17;18.40;77.40
39095;DHT22;24840;47.508;19.376;2023-03-23T08:36:42;17.80;75.30
39095;DHT22;24840;47.508;19.376;2023-03-23T08:39:10;17.60;77.40
39095;DHT22;24840;47.508;19.376;2023-03-23T08:41:35;17.70;75.30
39095;DHT22;24840;47.508;19.376;2023-03-23T08:44:01;17.50;74.80
39095;DHT22;24840;47.508;19.376;2023-03-23T08:46:28;18.10;76.80
39095;DHT22;24840;47.508;19.376;2023-03-23T08:48:54;18.50;77.20
39095;DHT22;24840;47.508;19.376;2023-03-23T08:51:20;19.40;71.90
39095;DHT22;24840;47.508;19.376;2023-03-23T08:53:45;19.20;73.60
39095;DHT22;24840;47.508;19.376;2023-03-23T08:56:11;19.30;72.50
39095;DHT22;24840;47.508;19.376;2023-03-23T08:58:39;19.50;71.40
39095;DHT22;24840;47.508;19.376;2023-03-23T09:01:06;19.30;71.60
39095;DHT22;24840;47.508;19.376;2023-03-23T09:03:33;19.20;70.20
39095;DHT22;24840;47.508;19.376;2023-03-23T09:06:01;19.00;68.80
39095;DHT22;24840;47.508;19.376;2023-03-23T09:08:28;19.10;72.20
39095;DHT22;24840;47.508;19.376;2023-03-23T09:10:59;19.90;69.00
39095;DHT22;24840;47.508;19.376;2023-03-23T09:13:25;19.80;67.70
39095;DHT22;24840;47.508;19.376;2023-03-23T09:15:51;19.50;67.20
39095;DHT22;24840;47.508;19.376;2023-03-23T09:18:18;19.40;69.00
39095;DHT22;24840;47.508;19.376;2023-03-23T09:20:45;20.70;66.80
39095;DHT22;24840;47.508;19.376;2023-03-23T09:23:11;20.00;67.70
39095;DHT22;24840;47.508;19.376;2023-03-23T09:25:39;20.30;67.60
39095;DHT22;24840;47.508;19.376;2023-03-23T09:28:05;21.30;66.60
39095;DHT22;24840;47.508;19.376;2023-03-23T09:30:32;20.70;64.70
39095;DHT22;24840;47.508;19.376;2023-03-23T09:33:00;20.80;63.60
39095;DHT22;24840;47.508;19.376;2023-03-23T09:35:27;21.00;65.50
39095;DHT22;24840;47.508;19.376;2023-03-23T09:37:53;21.10;64.30
39095;DHT22;24840;47.508;19.376;2023-03-23T09:40:45;21.20;66.20
39095;DHT22;24840;47.508;19.376;2023-03-23T09:48:54;19.20;64.80
39095;DHT22;24840;47.508;19.376;2023-03-23T09:56:45;20.40;65.60
39095;DHT22;24840;47.508;19.376;2023-03-23T09:59:31;21.50;60.60
39095;DHT22;24840;47.508;19.376;2023-03-23T10:02:29;21.10;61.10
39095;DHT22;24840;47.508;19.376;2023-03-23T10:05:06;21.10;61.10
39095;DHT22;24840;47.508;19.376;2023-03-23T10:07:33;21.80;59.40
39095;DHT22;24840;47.508;19.376;2023-03-23T10:10:00;22.40;58.70
39095;DHT22;24840;47.508;19.376;2023-03-23T10:12:40;22.30;58.20
39095;DHT22;24840;47.508;19.376;2023-03-23T10:15:17;22.10;56.10
39095;DHT22;24840;47.508;19.376;2023-03-23T10:17:52;21.20;59.90
39095;DHT22;24840;47.508;19.376;2023-03-23T10:29:19;21.60;57.30
39095;DHT22;24840;47.508;19.376;2023-03-23T10:31:54;21.10;58.30
39095;DHT22;24840;47.508;19.376;2023-03-23T10:37:26;21.80;57.20
39095;DHT22;24840;47.508;19.376;2023-03-23T10:39:58;22.30;57.20
39095;DHT22;24840;47.508;19.376;2023-03-23T10:42:33;21.90;57.10
39095;DHT22;24840;47.508;19.376;2023-03-23T10:48:18;22.10;56.50
39095;DHT22;24840;47.508;19.376;2023-03-23T10:50:48;21.80;58.30
39095;DHT22;24840;47.508;19.376;2023-03-23T10:53:37;21.40;56.40
39095;DHT22;24840;47.508;19.376;2023-03-23T10:56:04;21.10;57.10
39095;DHT22;24840;47.508;19.376;2023-03-23T10:58:32;21.10;57.90
39095;DHT22;24840;47.508;19.376;2023-03-23T11:01:00;21.00;58.90
39095;DHT22;24840;47.508;19.376;2023-03-23T11:03:43;20.90;57.20
39095;DHT22;24840;47.508;19.376;2023-03-23T11:06:17;20.70;56.50
39095;DHT22;24840;47.508;19.376;2023-03-23T11:14:12;20.20;58.10
39095;DHT22;24840;47.508;19.376;2023-03-23T11:16:44;20.30;58.90
39095;DHT22;24840;47.508;19.376;2023-03-23T11:19:26;20.20;58.00
39095;DHT22;24840;47.508;19.376;2023-03-23T11:22:05;20.20;57.60
39095;DHT22;24840;47.508;19.376;2023-03-23T11:24:45;20.20;58.00
39095;DHT22;24840;47.508;19.376;2023-03-23T11:27:12;20.20;56.90
39095;DHT22;24840;47.508;19.376;2023-03-23T11:32:34;20.10;58.30
39095;DHT22;24840;47.508;19.376;2023-03-23T11:35:06;20.10;59.00
39095;DHT22;24840;47.508;19.376;2023-03-23T11:37:47;20.10;58.30
39095;DHT22;24840;47.508;19.376;2023-03-23T11:40:20;20.00;57.80
39095;DHT22;24840;47.508;19.376;2023-03-23T11:43:14;20.20;58.90
39095;DHT22;24840;47.508;19.376;2023-03-23T11:46:08;20.60;57.60
39095;DHT22;24840;47.508;19.376;2023-03-23T11:48:58;21.00;57.10
39095;DHT22;24840;47.508;19.376;2023-03-23T11:51:42;20.50;57.20
39095;DHT22;24840;47.508;19.376;2023-03-23T11:56:40;20.50;59.80
39095;DHT22;24840;47.508;19.376;2023-03-23T11:59:12;21.00;58.10
39095;DHT22;24840;47.508;19.376;2023-03-23T12:15:26;20.10;58.90
39095;DHT22;24840;47.508;19.376;2023-03-23T12:18:22;19.90;58.50
39095;DHT22;24840;47.508;19.376;2023-03-23T12:26:28;21.30;59.20
39095;DHT22;24840;47.508;19.376;2023-03-23T12:35:29;23.40;54.50
39095;DHT22;24840;47.508;19.376;2023-03-23T12:48:48;24.30;53.30
39095;DHT22;24840;47.508;19.376;2023-03-23T12:51:33;23.70;55.00
39095;DHT22;24840;47.508;19.376;2023-03-23T12:54:16;23.10;52.70
39095;DHT22;24840;47.508;19.376;2023-03-23T12:56:56;22.40;55.30
39095;DHT22;24840;47.508;19.376;2023-03-23T13:02:30;22.90;54.30
39095;DHT22;24840;47.508;19.376;2023-03-23T13:05:09;23.30;54.20
39095;DHT22;24840;47.508;19.376;2023-03-23T13:07:51;24.50;53.10
39095;DHT22;24840;47.508;19.376;2023-03-23T13:10:21;24.70;54.50
39095;DHT22;24840;47.508;19.376;2023-03-23T13:12:49;24.70;50.90
39095;DHT22;24840;47.508;19.376;2023-03-23T13:28:24;23.20;53.30
39095;DHT22;24840;47.508;19.376;2023-03-23T13:31:04;22.90;53.60
39095;DHT22;24840;47.508;19.376;2023-03-23T13:33:36;23.10;53.70
39095;DHT22;24840;47.508;19.376;2023-03-23T13:36:07;23.00;53.40
39095;DHT22;24840;47.508;19.376;2023-03-23T13:38:34;22.70;53.50
39095;DHT22;24840;47.508;19.376;2023-03-23T13:41:11;22.90;54.30
39095;DHT22;24840;47.508;19.376;2023-03-23T13:43:39;23.20;52.60
39095;DHT22;24840;47.508;19.376;2023-03-23T13:46:29;23.00;53.80
39095;DHT22;24840;47.508;19.376;2023-03-23T13:54:24;23.20;56.20
39095;DHT22;24840;47.508;19.376;2023-03-23T13:57:00;23.00;53.30
39095;DHT22;24840;47.508;19.376;2023-03-23T14:01:54;22.70;55.10
39095;DHT22;24840;47.508;19.376;2023-03-23T14:04:21;22.30;54.50
39095;DHT22;24840;47.508;19.376;2023-03-23T14:06:49;22.30;55.60
39095;DHT22;24840;47.508;19.376;2023-03-23T14:12:01;22.60;54.60
39095;DHT22;24840;47.508;19.376;2023-03-23T14:14:42;22.80;54.30
39095;DHT22;24840;47.508;19.376;2023-03-23T14:19:41;23.00;54.60
39095;DHT22;24840;47.508;19.376;2023-03-23T14:22:23;23.80;53.80
39095;DHT22;24840;47.508;19.376;2023-03-23T14:24:50;24.10;54.30
39095;DHT22;24840;47.508;19.376;2023-03-23T14:27:21;24.50;52.50
39095;DHT22;24840;47.508;19.376;2023-03-23T14:30:00;23.40;52.30
39095;DHT22;24840;47.508;19.376;2023-03-23T14:32:28;23.00;53.90
39095;DHT22;24840;47.508;19.376;2023-03-23T14:34:54;23.10;53.70
39095;DHT22;24840;47.508;19.376;2023-03-23T14:37:21;22.20;54.30
39095;DHT22;24840;47.508;19.376;2023-03-23T14:39:52;22.00;54.20
39095;DHT22;24840;47.508;19.376;2023-03-23T14:42:33;22.30;54.50
39095;DHT22;24840;47.508;19.376;2023-03-23T14:45:01;22.60;55.90
39095;DHT22;24840;47.508;19.376;2023-03-23T14:50:02;22.60;53.40
39095;DHT22;24840;47.508;19.376;2023-03-23T14:52:35;22.50;55.00
39095;DHT22;24840;47.508;19.376;2023-03-23T14:55:34;22.80;54.40
39095;DHT22;24840;47.508;19.376;2023-03-23T14:58:06;22.60;52.60
39095;DHT22;24840;47.508;19.376;2023-03-23T15:00:45;22.80;53.80
39095;DHT22;24840;47.508;19.376;2023-03-23T15:03:16;22.30;54.80
39095;DHT22;24840;47.508;19.376;2023-03-23T15:05:52;22.00;54.30
39095;DHT22;24840;47.508;19.376;2023-03-23T15:08:27;21.80;54.60
39095;DHT22;24840;47.508;19.376;2023-03-23T15:11:08;21.60;54.20
39095;DHT22;24840;47.508;19.376;2023-03-23T15:13:41;21.40;54.40
39095;DHT22;24840;47.508;19.376;2023-03-23T15:16:29;21.30;55.00
39095;DHT22;24840;47.508;19.376;2023-03-23T15:19:01;20.90;55.40
39095;DHT22;24840;47.508;19.376;2023-03-23T15:21:28;20.80;55.50
39095;DHT22;24840;47.508;19.376;2023-03-23T15:23:54;20.80;56.00
39095;DHT22;24840;47.508;19.376;2023-03-23T15:26:41;20.80;55.90
39095;DHT22;24840;47.508;19.376;2023-03-23T15:31:33;20.80;56.40
39095;DHT22;24840;47.508;19.376;2023-03-23T15:34:02;20.50;56.50
39095;DHT22;24840;47.508;19.376;2023-03-23T15:36:32;20.30;56.20
39095;DHT22;24840;47.508;19.376;2023-03-23T15:38:59;20.10;56.40
39095;DHT22;24840;47.508;19.376;2023-03-23T15:41:30;20.10;57.00
39095;DHT22;24840;47.508;19.376;2023-03-23T15:44:10;20.00;57.00
39095;DHT22;24840;47.508;19.376;2023-03-23T15:46:50;20.00;56.30
39095;DHT22;24840;47.508;19.376;2023-03-23T15:49:16;20.00;56.40
39095;DHT22;24840;47.508;19.376;2023-03-23T15:51:42;20.10;56.10
39095;DHT22;24840;47.508;19.376;2023-03-23T15:54:17;20.30;56.50
39095;DHT22;24840;47.508;19.376;2023-03-23T15:56:43;20.20;56.10
39095;DHT22;24840;47.508;19.376;2023-03-23T15:59:10;20.10;56.60
39095;DHT22;24840;47.508;19.376;2023-03-23T16:01:38;20.00;57.60
39095;DHT22;24840;47.508;19.376;2023-03-23T16:04:13;19.90;57.30
39095;DHT22;24840;47.508;19.376;2023-03-23T16:06:41;19.90;58.20
39095;DHT22;24840;47.508;19.376;2023-03-23T16:09:10;19.80;57.90
39095;DHT22;24840;47.508;19.376;2023-03-23T16:11:37;19.80;58.50
39095;DHT22;24840;47.508;19.376;2023-03-23T16:14:03;19.70;58.00
39095;DHT22;24840;47.508;19.376;2023-03-23T16:16:33;19.60;58.40
39095;DHT22;24840;47.508;19.376;2023-03-23T16:18:59;19.50;58.80
39095;DHT22;24840;47.508;19.376;2023-03-23T16:21:25;19.30;58.90
39095;DHT22;24840;47.508;19.376;2023-03-23T16:23:51;19.20;60.50
39095;DHT22;24840;47.508;19.376;2023-03-23T16:26:17;18.90;61.90
39095;DHT22;24840;47.508;19.376;2023-03-23T16:28:43;18.70;62.20
39095;DHT22;24840;47.508;19.376;2023-03-23T16:31:08;18.60;64.00
39095;DHT22;24840;47.508;19.376;2023-03-23T16:33:34;18.40;63.60
39095;DHT22;24840;47.508;19.376;2023-03-23T16:36:00;18.20;63.90
39095;DHT22;24840;47.508;19.376;2023-03-23T16:38:26;18.10;64.40
39095;DHT22;24840;47.508;19.376;2023-03-23T16:40:52;17.70;69.00
39095;DHT22;24840;47.508;19.376;2023-03-23T16:43:18;17.60;67.10
39095;DHT22;24840;47.508;19.376;2023-03-23T16:45:44;17.40;70.60
39095;DHT22;24840;47.508;19.376;2023-03-23T16:48:12;17.20;69.60
39095;DHT22;24840;47.508;19.376;2023-03-23T16:50:39;16.80;71.00
39095;DHT22;24840;47.508;19.376;2023-03-23T16:53:06;16.60;71.40
39095;DHT22;24840;47.508;19.376;2023-03-23T16:55:33;16.50;72.20
39095;DHT22;24840;47.508;19.376;2023-03-23T16:57:59;16.40;72.40
39095;DHT22;24840;47.508;19.376;2023-03-23T17:00:26;16.30;72.10
39095;DHT22;24840;47.508;19.376;2023-03-23T17:02:53;16.00;75.30
39095;DHT22;24840;47.508;19.376;2023-03-23T17:05:23;15.70;74.60
39095;DHT22;24840;47.508;19.376;2023-03-23T17:07:48;15.50;75.20
39095;DHT22;24840;47.508;19.376;2023-03-23T17:10:15;15.40;75.80
39095;DHT22;24840;47.508;19.376;2023-03-23T17:12:42;15.10;75.50
39095;DHT22;24840;47.508;19.376;2023-03-23T17:15:09;14.70;78.80
39095;DHT22;24840;47.508;19.376;2023-03-23T17:17:35;14.60;77.50
39095;DHT22;24840;47.508;19.376;2023-03-23T17:20:02;14.50;77.20
39095;DHT22;24840;47.508;19.376;2023-03-23T17:22:27;14.30;77.90
39095;DHT22;24840;47.508;19.376;2023-03-23T17:24:53;14.60;76.40
39095;DHT22;24840;47.508;19.376;2023-03-23T17:27:20;14.50;76.40
39095;DHT22;24840;47.508;19.376;2023-03-23T17:29:46;14.40;77.60
39095;DHT22;24840;47.508;19.376;2023-03-23T17:32:13;14.20;78.00
39095;DHT22;24840;47.508;19.376;2023-03-23T17:34:39;13.90;79.50
39095;DHT22;24840;47.508;19.376;2023-03-23T17:37:05;13.70;80.80
39095;DHT22;24840;47.508;19.376;2023-03-23T17:39:31;13.40;80.10
39095;DHT22;24840;47.508;19.376;2023-03-23T17:41:58;13.40;80.40
39095;DHT22;24840;47.508;19.376;2023-03-23T17:44:25;13.10;81.50
39095;DHT22;24840;47.508;19.376;2023-03-23T17:46:50;13.00;81.30
39095;DHT22;24840;47.508;19.376;2023-03-23T17:49:16;13.00;81.90
39095;DHT22;24840;47.508;19.376;2023-03-23T17:51:42;12.90;82.50
39095;DHT22;24840;47.508;19.376;2023-03-23T17:54:08;12.70;83.10